sensor_id;sensor_type;location;lat;lon;timestamp;P1;durP1;ratioP1;P2;durP2;ratioP2
74158;SDS011;62511;47.970;11.774;2023-11-19T00:04:09;0.70;;;0.60;;
74158;SDS011;62511;47.970;11.774;2023-11-19T00:09:32;1.92;;;1.10;;
74158;SDS011;62511;47.970;11.774;2023-11-19T00:14:29;1.35;;;1.17;;
74158;SDS011;62511;47.970;11.774;2023-11-19T00:17:01;8.20;;;2.40;;
74158;SDS011;62511;47.970;11.774;2023-11-19T00:21:59;2.80;;;1.50;;
74158;SDS011;62511;47.970;11.774;2023-11-19T00:27:08;2.92;;;1.30;;
74158;SDS011;62511;47.970;11.774;2023-11-19T00:29:35;1.70;;;1.17;;
74158;SDS011;62511;47.970;11.774;2023-11-19T00:35:03;1.23;;;1.10;;
74158;SDS011;62511;47.970;11.774;2023-11-19T00:37:29;1.20;;;0.90;;
74158;SDS011;62511;47.970;11.774;2023-11-19T00:39:55;1.60;;;1.17;;
74158;SDS011;62511;47.970;11.774;2023-11-19T00:42:23;1.70;;;1.20;;
74158;SDS011;62511;47.970;11.774;2023-11-19T00:44:55;1.23;;;1.02;;
74158;SDS011;62511;47.970;11.774;2023-11-19T00:47:30;1.02;;;0.75;;
74158;SDS011;62511;47.970;11.774;2023-11-19T00:52:50;0.80;;;0.73;;
74158;SDS011;62511;47.970;11.774;2023-11-19T00:55:24;1.77;;;0.90;;
74158;SDS011;62511;47.970;11.774;2023-11-19T00:57:50;1.83;;;1.05;;
74158;SDS011;62511;47.970;11.774;2023-11-19T01:00:21;0.70;;;0.63;;
74158;SDS011;62511;47.970;11.774;2023-11-19T01:02:55;2.97;;;1.15;;
74158;SDS011;62511;47.970;11.774;2023-11-19T01:05:23;1.23;;;0.73;;
74158;SDS011;62511;47.970;11.774;2023-11-19T01:07:52;1.35;;;0.80;;
74158;SDS011;62511;47.970;11.774;2023-11-19T01:10:20;1.10;;;0.90;;
74158;SDS011;62511;47.970;11.774;2023-11-19T01:12:47;1.38;;;1.00;;
74158;SDS011;62511;47.970;11.774;2023-11-19T01:17:45;2.17;;;1.25;;
74158;SDS011;62511;47.970;11.774;2023-11-19T01:20:12;1.77;;;1.10;;
74158;SDS011;62511;47.970;11.774;2023-11-19T01:22:40;2.60;;;1.27;;
74158;SDS011;62511;47.970;11.774;2023-11-19T01:25:06;1.48;;;1.02;;
74158;SDS011;62511;47.970;11.774;2023-11-19T01:27:32;1.52;;;1.10;;
74158;SDS011;62511;47.970;11.774;2023-11-19T01:30:01;2.95;;;1.10;;
74158;SDS011;62511;47.970;11.774;2023-11-19T01:32:31;1.75;;;1.35;;
74158;SDS011;62511;47.970;11.774;2023-11-19T01:34:58;1.95;;;1.52;;
74158;SDS011;62511;47.970;11.774;2023-11-19T01:37:31;2.22;;;1.30;;
74158;SDS011;62511;47.970;11.774;2023-11-19T01:39:59;1.92;;;1.33;;
74158;SDS011;62511;47.970;11.774;2023-11-19T01:42:35;2.95;;;1.10;;
74158;SDS011;62511;47.970;11.774;2023-11-19T01:45:08;1.85;;;1.10;;
74158;SDS011;62511;47.970;11.774;2023-11-19T01:47:35;1.55;;;1.10;;
74158;SDS011;62511;47.970;11.774;2023-11-19T01:52:34;2.20;;;1.33;;
74158;SDS011;62511;47.970;11.774;2023-11-19T01:55:03;2.05;;;1.27;;
74158;SDS011;62511;47.970;11.774;2023-11-19T01:57:31;2.30;;;1.25;;
74158;SDS011;62511;47.970;11.774;2023-11-19T01:59:59;1.48;;;0.98;;
74158;SDS011;62511;47.970;11.774;2023-11-19T02:02:35;3.15;;;1.33;;
74158;SDS011;62511;47.970;11.774;2023-11-19T02:07:29;2.25;;;1.13;;
74158;SDS011;62511;47.970;11.774;2023-11-19T02:12:51;1.23;;;0.73;;
74158;SDS011;62511;47.970;11.774;2023-11-19T02:15:18;2.30;;;1.25;;
74158;SDS011;62511;47.970;11.774;2023-11-19T02:20:21;1.63;;;1.23;;
74158;SDS011;62511;47.970;11.774;2023-11-19T02:22:49;1.10;;;0.77;;
74158;SDS011;62511;47.970;11.774;2023-11-19T02:25:25;2.90;;;1.83;;
74158;SDS011;62511;47.970;11.774;2023-11-19T02:28:01;1.00;;;0.70;;
74158;SDS011;62511;47.970;11.774;2023-11-19T02:30:33;1.40;;;1.00;;
74158;SDS011;62511;47.970;11.774;2023-11-19T02:32:59;2.03;;;1.15;;
74158;SDS011;62511;47.970;11.774;2023-11-19T02:35:33;1.25;;;0.80;;
74158;SDS011;62511;47.970;11.774;2023-11-19T02:38:01;0.60;;;0.60;;
74158;SDS011;62511;47.970;11.774;2023-11-19T02:40:35;1.15;;;0.85;;
74158;SDS011;62511;47.970;11.774;2023-11-19T02:43:09;0.90;;;0.55;;
74158;SDS011;62511;47.970;11.774;2023-11-19T02:45:37;0.88;;;0.52;;
74158;SDS011;62511;47.970;11.774;2023-11-19T02:48:11;1.40;;;0.40;;
74158;SDS011;62511;47.970;11.774;2023-11-19T02:56:00;0.60;;;0.47;;
74158;SDS011;62511;47.970;11.774;2023-11-19T02:58:43;0.85;;;0.75;;
74158;SDS011;62511;47.970;11.774;2023-11-19T03:01:28;1.35;;;0.40;;
74158;SDS011;62511;47.970;11.774;2023-11-19T03:04:02;0.70;;;0.38;;
74158;SDS011;62511;47.970;11.774;2023-11-19T03:06:30;0.57;;;0.40;;
74158;SDS011;62511;47.970;11.774;2023-11-19T03:08:57;0.50;;;0.30;;
74158;SDS011;62511;47.970;11.774;2023-11-19T03:11:32;1.45;;;0.68;;
74158;SDS011;62511;47.970;11.774;2023-11-19T03:14:04;0.55;;;0.38;;
74158;SDS011;62511;47.970;11.774;2023-11-19T03:16:30;0.43;;;0.30;;
74158;SDS011;62511;47.970;11.774;2023-11-19T03:18:57;0.30;;;0.30;;
74158;SDS011;62511;47.970;11.774;2023-11-19T03:21:45;0.30;;;0.30;;
74158;SDS011;62511;47.970;11.774;2023-11-19T03:24:13;1.15;;;0.38;;
74158;SDS011;62511;47.970;11.774;2023-11-19T03:26:47;0.50;;;0.50;;
74158;SDS011;62511;47.970;11.774;2023-11-19T03:29:15;0.30;;;0.30;;
74158;SDS011;62511;47.970;11.774;2023-11-19T03:31:43;1.85;;;0.52;;
74158;SDS011;62511;47.970;11.774;2023-11-19T03:34:10;0.68;;;0.30;;
74158;SDS011;62511;47.970;11.774;2023-11-19T03:36:36;0.75;;;0.50;;
74158;SDS011;62511;47.970;11.774;2023-11-19T03:39:04;1.13;;;0.80;;
74158;SDS011;62511;47.970;11.774;2023-11-19T03:41:32;0.70;;;0.40;;
74158;SDS011;62511;47.970;11.774;2023-11-19T03:43:59;1.58;;;0.50;;
74158;SDS011;62511;47.970;11.774;2023-11-19T03:46:25;1.70;;;0.73;;
74158;SDS011;62511;47.970;11.774;2023-11-19T03:48:53;0.85;;;0.60;;
74158;SDS011;62511;47.970;11.774;2023-11-19T03:51:19;1.02;;;0.57;;
74158;SDS011;62511;47.970;11.774;2023-11-19T03:53:48;0.30;;;0.22;;
74158;SDS011;62511;47.970;11.774;2023-11-19T03:56:15;0.20;;;0.20;;
74158;SDS011;62511;47.970;11.774;2023-11-19T03:58:52;1.58;;;0.20;;
74158;SDS011;62511;47.970;11.774;2023-11-19T04:01:19;0.40;;;0.32;;
74158;SDS011;62511;47.970;11.774;2023-11-19T04:03:54;0.17;;;0.17;;
74158;SDS011;62511;47.970;11.774;2023-11-19T04:06:22;0.20;;;0.20;;
74158;SDS011;62511;47.970;11.774;2023-11-19T04:08:49;0.20;;;0.10;;
74158;SDS011;62511;47.970;11.774;2023-11-19T04:11:16;0.30;;;0.25;;
74158;SDS011;62511;47.970;11.774;2023-11-19T04:13:43;0.28;;;0.20;;
74158;SDS011;62511;47.970;11.774;2023-11-19T04:16:09;0.82;;;0.20;;
74158;SDS011;62511;47.970;11.774;2023-11-19T04:18:35;0.22;;;0.22;;
74158;SDS011;62511;47.970;11.774;2023-11-19T04:21:01;0.35;;;0.22;;
74158;SDS011;62511;47.970;11.774;2023-11-19T04:23:27;0.10;;;0.10;;
74158;SDS011;62511;47.970;11.774;2023-11-19T04:25:53;0.32;;;0.20;;
74158;SDS011;62511;47.970;11.774;2023-11-19T04:28:19;0.20;;;0.20;;
74158;SDS011;62511;47.970;11.774;2023-11-19T04:30:46;0.82;;;0.50;;
74158;SDS011;62511;47.970;11.774;2023-11-19T04:33:12;0.38;;;0.30;;
74158;SDS011;62511;47.970;11.774;2023-11-19T04:35:38;0.10;;;0.10;;
74158;SDS011;62511;47.970;11.774;2023-11-19T04:38:05;0.60;;;0.30;;
74158;SDS011;62511;47.970;11.774;2023-11-19T04:40:32;0.30;;;0.30;;
74158;SDS011;62511;47.970;11.774;2023-11-19T04:42:58;0.30;;;0.30;;
74158;SDS011;62511;47.970;11.774;2023-11-19T04:45:24;0.30;;;0.22;;
74158;SDS011;62511;47.970;11.774;2023-11-19T04:47:50;0.15;;;0.15;;
74158;SDS011;62511;47.970;11.774;2023-11-19T04:50:16;0.28;;;0.25;;
74158;SDS011;62511;47.970;11.774;2023-11-19T04:52:42;0.30;;;0.25;;
74158;SDS011;62511;47.970;11.774;2023-11-19T04:55:12;1.13;;;0.20;;
74158;SDS011;62511;47.970;11.774;2023-11-19T04:57:41;0.50;;;0.30;;
74158;SDS011;62511;47.970;11.774;2023-11-19T05:00:08;1.63;;;0.28;;
74158;SDS011;62511;47.970;11.774;2023-11-19T05:02:36;1.20;;;0.50;;
74158;SDS011;62511;47.970;11.774;2023-11-19T05:05:02;0.60;;;0.40;;
74158;SDS011;62511;47.970;11.774;2023-11-19T05:07:34;0.20;;;0.20;;
74158;SDS011;62511;47.970;11.774;2023-11-19T05:10:00;0.10;;;0.10;;
74158;SDS011;62511;47.970;11.774;2023-11-19T05:12:26;0.38;;;0.20;;
74158;SDS011;62511;47.970;11.774;2023-11-19T05:14:52;0.15;;;0.10;;
74158;SDS011;62511;47.970;11.774;2023-11-19T05:17:18;0.63;;;0.20;;
74158;SDS011;62511;47.970;11.774;2023-11-19T05:19:44;0.43;;;0.20;;
74158;SDS011;62511;47.970;11.774;2023-11-19T05:22:11;0.73;;;0.20;;
74158;SDS011;62511;47.970;11.774;2023-11-19T05:24:37;0.30;;;0.20;;
74158;SDS011;62511;47.970;11.774;2023-11-19T05:27:04;0.20;;;0.20;;
74158;SDS011;62511;47.970;11.774;2023-11-19T05:29:32;0.17;;;0.17;;
74158;SDS011;62511;47.970;11.774;2023-11-19T05:31:59;0.20;;;0.20;;
74158;SDS011;62511;47.970;11.774;2023-11-19T05:34:25;0.30;;;0.20;;
74158;SDS011;62511;47.970;11.774;2023-11-19T05:36:51;0.30;;;0.30;;
74158;SDS011;62511;47.970;11.774;2023-11-19T05:39:17;1.67;;;0.22;;
74158;SDS011;62511;47.970;11.774;2023-11-19T05:41:46;1.00;;;0.35;;
74158;SDS011;62511;47.970;11.774;2023-11-19T05:44:12;0.20;;;0.10;;
74158;SDS011;62511;47.970;11.774;2023-11-19T05:46:39;0.10;;;0.10;;
74158;SDS011;62511;47.970;11.774;2023-11-19T05:49:08;0.00;;;0.00;;
74158;SDS011;62511;47.970;11.774;2023-11-19T05:51:40;0.30;;;0.20;;
74158;SDS011;62511;47.970;11.774;2023-11-19T05:54:08;0.25;;;0.25;;
74158;SDS011;62511;47.970;11.774;2023-11-19T05:56:35;0.20;;;0.20;;
74158;SDS011;62511;47.970;11.774;2023-11-19T05:59:02;1.80;;;0.80;;
74158;SDS011;62511;47.970;11.774;2023-11-19T06:01:36;0.10;;;0.10;;
74158;SDS011;62511;47.970;11.774;2023-11-19T06:04:03;0.10;;;0.10;;
74158;SDS011;62511;47.970;11.774;2023-11-19T06:06:29;0.60;;;0.10;;
74158;SDS011;62511;47.970;11.774;2023-11-19T06:08:56;0.35;;;0.28;;
74158;SDS011;62511;47.970;11.774;2023-11-19T06:11:23;0.40;;;0.30;;
74158;SDS011;62511;47.970;11.774;2023-11-19T06:13:52;0.20;;;0.20;;
74158;SDS011;62511;47.970;11.774;2023-11-19T06:16:19;0.03;;;0.00;;
74158;SDS011;62511;47.970;11.774;2023-11-19T06:18:45;0.15;;;0.15;;
74158;SDS011;62511;47.970;11.774;2023-11-19T06:21:11;0.10;;;0.10;;
74158;SDS011;62511;47.970;11.774;2023-11-19T06:23:37;0.13;;;0.13;;
74158;SDS011;62511;47.970;11.774;2023-11-19T06:26:04;0.10;;;0.10;;
74158;SDS011;62511;47.970;11.774;2023-11-19T06:28:30;0.10;;;0.10;;
74158;SDS011;62511;47.970;11.774;2023-11-19T06:30:56;0.30;;;0.10;;
74158;SDS011;62511;47.970;11.774;2023-11-19T06:33:23;0.20;;;0.10;;
74158;SDS011;62511;47.970;11.774;2023-11-19T06:35:51;0.52;;;0.20;;
74158;SDS011;62511;47.970;11.774;2023-11-19T06:38:17;0.20;;;0.20;;
74158;SDS011;62511;47.970;11.774;2023-11-19T06:40:44;0.13;;;0.10;;
74158;SDS011;62511;47.970;11.774;2023-11-19T06:43:10;0.10;;;0.10;;
74158;SDS011;62511;47.970;11.774;2023-11-19T06:45:36;0.40;;;0.30;;
74158;SDS011;62511;47.970;11.774;2023-11-19T06:48:05;0.25;;;0.25;;
74158;SDS011;62511;47.970;11.774;2023-11-19T06:50:38;0.10;;;0.10;;
74158;SDS011;62511;47.970;11.774;2023-11-19T06:53:09;0.10;;;0.10;;
74158;SDS011;62511;47.970;11.774;2023-11-19T06:55:49;4.00;;;0.20;;
74158;SDS011;62511;47.970;11.774;2023-11-19T07:03:20;1.38;;;0.35;;
74158;SDS011;62511;47.970;11.774;2023-11-19T07:05:46;0.20;;;0.20;;
74158;SDS011;62511;47.970;11.774;2023-11-19T07:08:13;0.88;;;0.63;;
74158;SDS011;62511;47.970;11.774;2023-11-19T07:10:39;0.45;;;0.30;;
74158;SDS011;62511;47.970;11.774;2023-11-19T07:13:07;0.20;;;0.20;;
74158;SDS011;62511;47.970;11.774;2023-11-19T07:15:38;0.20;;;0.20;;
74158;SDS011;62511;47.970;11.774;2023-11-19T07:18:04;0.20;;;0.20;;
74158;SDS011;62511;47.970;11.774;2023-11-19T07:20:32;0.55;;;0.00;;
74158;SDS011;62511;47.970;11.774;2023-11-19T07:22:58;0.17;;;0.17;;
74158;SDS011;62511;47.970;11.774;2023-11-19T07:25:24;0.82;;;0.63;;
74158;SDS011;62511;47.970;11.774;2023-11-19T07:27:51;0.20;;;0.20;;
74158;SDS011;62511;47.970;11.774;2023-11-19T07:30:18;1.05;;;0.45;;
74158;SDS011;62511;47.970;11.774;2023-11-19T07:32:44;0.73;;;0.73;;
74158;SDS011;62511;47.970;11.774;2023-11-19T07:37:52;0.45;;;0.40;;
74158;SDS011;62511;47.970;11.774;2023-11-19T07:40:18;0.63;;;0.17;;
74158;SDS011;62511;47.970;11.774;2023-11-19T07:42:45;0.38;;;0.25;;
74158;SDS011;62511;47.970;11.774;2023-11-19T07:45:13;0.10;;;0.10;;
74158;SDS011;62511;47.970;11.774;2023-11-19T07:47:41;0.30;;;0.30;;
74158;SDS011;62511;47.970;11.774;2023-11-19T07:50:10;0.50;;;0.43;;
74158;SDS011;62511;47.970;11.774;2023-11-19T07:52:39;0.52;;;0.52;;
74158;SDS011;62511;47.970;11.774;2023-11-19T07:55:05;0.20;;;0.20;;
74158;SDS011;62511;47.970;11.774;2023-11-19T07:57:33;0.10;;;0.10;;
74158;SDS011;62511;47.970;11.774;2023-11-19T08:00:07;0.32;;;0.20;;
74158;SDS011;62511;47.970;11.774;2023-11-19T08:02:37;0.10;;;0.10;;
74158;SDS011;62511;47.970;11.774;2023-11-19T08:05:05;0.30;;;0.30;;
74158;SDS011;62511;47.970;11.774;2023-11-19T08:07:33;0.00;;;0.00;;
74158;SDS011;62511;47.970;11.774;2023-11-19T08:10:01;0.17;;;0.17;;
74158;SDS011;62511;47.970;11.774;2023-11-19T08:12:27;0.10;;;0.10;;
74158;SDS011;62511;47.970;11.774;2023-11-19T08:15:01;0.25;;;0.10;;
74158;SDS011;62511;47.970;11.774;2023-11-19T08:17:35;0.20;;;0.20;;
74158;SDS011;62511;47.970;11.774;2023-11-19T08:20:01;0.20;;;0.20;;
74158;SDS011;62511;47.970;11.774;2023-11-19T08:22:28;0.30;;;0.17;;
74158;SDS011;62511;47.970;11.774;2023-11-19T08:24:56;0.20;;;0.20;;
74158;SDS011;62511;47.970;11.774;2023-11-19T08:27:22;0.13;;;0.13;;
74158;SDS011;62511;47.970;11.774;2023-11-19T08:29:54;0.10;;;0.10;;
74158;SDS011;62511;47.970;11.774;2023-11-19T08:32:24;0.38;;;0.22;;
74158;SDS011;62511;47.970;11.774;2023-11-19T08:34:55;0.10;;;0.10;;
74158;SDS011;62511;47.970;11.774;2023-11-19T08:39:52;0.20;;;0.20;;
74158;SDS011;62511;47.970;11.774;2023-11-19T08:42:18;0.13;;;0.10;;
74158;SDS011;62511;47.970;11.774;2023-11-19T08:44:48;0.10;;;0.10;;
74158;SDS011;62511;47.970;11.774;2023-11-19T08:47:15;0.13;;;0.10;;
74158;SDS011;62511;47.970;11.774;2023-11-19T08:49:43;0.10;;;0.10;;
74158;SDS011;62511;47.970;11.774;2023-11-19T08:52:11;0.30;;;0.30;;
74158;SDS011;62511;47.970;11.774;2023-11-19T08:54:37;0.20;;;0.10;;
74158;SDS011;62511;47.970;11.774;2023-11-19T08:57:04;0.10;;;0.10;;
74158;SDS011;62511;47.970;11.774;2023-11-19T08:59:38;0.30;;;0.28;;
74158;SDS011;62511;47.970;11.774;2023-11-19T09:02:05;0.32;;;0.20;;
74158;SDS011;62511;47.970;11.774;2023-11-19T09:04:32;0.17;;;0.17;;
74158;SDS011;62511;47.970;11.774;2023-11-19T09:07:01;0.20;;;0.20;;
74158;SDS011;62511;47.970;11.774;2023-11-19T09:09:29;0.30;;;0.30;;
74158;SDS011;62511;47.970;11.774;2023-11-19T09:11:55;0.30;;;0.20;;
74158;SDS011;62511;47.970;11.774;2023-11-19T09:14:23;0.15;;;0.10;;
74158;SDS011;62511;47.970;11.774;2023-11-19T09:16:51;1.13;;;0.52;;
74158;SDS011;62511;47.970;11.774;2023-11-19T09:19:17;1.65;;;1.23;;
74158;SDS011;62511;47.970;11.774;2023-11-19T09:21:43;1.10;;;0.80;;
74158;SDS011;62511;47.970;11.774;2023-11-19T09:24:10;0.40;;;0.40;;
74158;SDS011;62511;47.970;11.774;2023-11-19T09:26:36;0.80;;;0.57;;
74158;SDS011;62511;47.970;11.774;2023-11-19T09:29:05;2.15;;;1.17;;
74158;SDS011;62511;47.970;11.774;2023-11-19T09:31:32;0.88;;;0.52;;
74158;SDS011;62511;47.970;11.774;2023-11-19T09:33:59;0.40;;;0.30;;
74158;SDS011;62511;47.970;11.774;2023-11-19T09:36:25;0.20;;;0.20;;
74158;SDS011;62511;47.970;11.774;2023-11-19T09:38:59;0.43;;;0.30;;
74158;SDS011;62511;47.970;11.774;2023-11-19T09:41:27;0.35;;;0.30;;
74158;SDS011;62511;47.970;11.774;2023-11-19T09:43:55;0.35;;;0.30;;
74158;SDS011;62511;47.970;11.774;2023-11-19T09:46:21;1.27;;;0.30;;
74158;SDS011;62511;47.970;11.774;2023-11-19T09:48:49;0.08;;;0.08;;
74158;SDS011;62511;47.970;11.774;2023-11-19T09:51:20;0.30;;;0.25;;
74158;SDS011;62511;47.970;11.774;2023-11-19T09:53:47;0.10;;;0.10;;
74158;SDS011;62511;47.970;11.774;2023-11-19T09:56:15;0.40;;;0.40;;
74158;SDS011;62511;47.970;11.774;2023-11-19T09:58:50;0.60;;;0.38;;
74158;SDS011;62511;47.970;11.774;2023-11-19T10:01:16;0.35;;;0.20;;
74158;SDS011;62511;47.970;11.774;2023-11-19T10:03:42;0.10;;;0.10;;
74158;SDS011;62511;47.970;11.774;2023-11-19T10:06:11;0.15;;;0.15;;
74158;SDS011;62511;47.970;11.774;2023-11-19T10:08:38;0.80;;;0.15;;
74158;SDS011;62511;47.970;11.774;2023-11-19T10:11:05;0.10;;;0.10;;
74158;SDS011;62511;47.970;11.774;2023-11-19T10:13:31;0.00;;;0.00;;
74158;SDS011;62511;47.970;11.774;2023-11-19T10:15:57;0.20;;;0.20;;
74158;SDS011;62511;47.970;11.774;2023-11-19T10:18:23;0.10;;;0.10;;
74158;SDS011;62511;47.970;11.774;2023-11-19T10:20:50;0.10;;;0.10;;
74158;SDS011;62511;47.970;11.774;2023-11-19T10:23:16;0.52;;;0.20;;
74158;SDS011;62511;47.970;11.774;2023-11-19T10:25:42;0.10;;;0.10;;
74158;SDS011;62511;47.970;11.774;2023-11-19T10:28:09;0.30;;;0.20;;
74158;SDS011;62511;47.970;11.774;2023-11-19T10:30:35;0.38;;;0.30;;
74158;SDS011;62511;47.970;11.774;2023-11-19T10:33:05;1.40;;;0.70;;
74158;SDS011;62511;47.970;11.774;2023-11-19T10:35:35;0.90;;;0.43;;
74158;SDS011;62511;47.970;11.774;2023-11-19T10:38:14;2.60;;;0.70;;
74158;SDS011;62511;47.970;11.774;2023-11-19T10:40:41;0.75;;;0.50;;
74158;SDS011;62511;47.970;11.774;2023-11-19T10:43:08;1.75;;;0.55;;
74158;SDS011;62511;47.970;11.774;2023-11-19T10:45:37;0.50;;;0.30;;
74158;SDS011;62511;47.970;11.774;2023-11-19T10:48:03;0.47;;;0.40;;
74158;SDS011;62511;47.970;11.774;2023-11-19T10:50:32;0.73;;;0.45;;
74158;SDS011;62511;47.970;11.774;2023-11-19T10:52:58;0.75;;;0.43;;
74158;SDS011;62511;47.970;11.774;2023-11-19T10:55:31;0.63;;;0.30;;
74158;SDS011;62511;47.970;11.774;2023-11-19T10:58:03;0.30;;;0.30;;
74158;SDS011;62511;47.970;11.774;2023-11-19T11:00:30;1.13;;;0.30;;
74158;SDS011;62511;47.970;11.774;2023-11-19T11:03:05;0.88;;;0.63;;
74158;SDS011;62511;47.970;11.774;2023-11-19T11:05:35;1.30;;;0.80;;
74158;SDS011;62511;47.970;11.774;2023-11-19T11:08:01;0.82;;;0.82;;
74158;SDS011;62511;47.970;11.774;2023-11-19T11:10:29;1.30;;;0.43;;
74158;SDS011;62511;47.970;11.774;2023-11-19T11:13:00;1.05;;;0.30;;
74158;SDS011;62511;47.970;11.774;2023-11-19T11:15:34;0.20;;;0.20;;
74158;SDS011;62511;47.970;11.774;2023-11-19T11:18:01;0.47;;;0.30;;
74158;SDS011;62511;47.970;11.774;2023-11-19T11:20:31;0.40;;;0.40;;
74158;SDS011;62511;47.970;11.774;2023-11-19T11:23:06;0.20;;;0.20;;
74158;SDS011;62511;47.970;11.774;2023-11-19T11:30:45;0.20;;;0.20;;
74158;SDS011;62511;47.970;11.774;2023-11-19T11:33:24;0.43;;;0.20;;
74158;SDS011;62511;47.970;11.774;2023-11-19T11:38:40;0.73;;;0.30;;
74158;SDS011;62511;47.970;11.774;2023-11-19T11:41:18;0.20;;;0.10;;
74158;SDS011;62511;47.970;11.774;2023-11-19T11:52:36;0.20;;;0.10;;
74158;SDS011;62511;47.970;11.774;2023-11-19T11:55:12;0.77;;;0.20;;
74158;SDS011;62511;47.970;11.774;2023-11-19T11:57:38;0.50;;;0.20;;
74158;SDS011;62511;47.970;11.774;2023-11-19T12:00:14;0.30;;;0.30;;
74158;SDS011;62511;47.970;11.774;2023-11-19T12:02:49;0.60;;;0.40;;
74158;SDS011;62511;47.970;11.774;2023-11-19T12:05:16;0.70;;;0.40;;
74158;SDS011;62511;47.970;11.774;2023-11-19T12:07:54;0.55;;;0.40;;
74158;SDS011;62511;47.970;11.774;2023-11-19T12:10:31;0.20;;;0.20;;
74158;SDS011;62511;47.970;11.774;2023-11-19T12:13:01;0.32;;;0.30;;
74158;SDS011;62511;47.970;11.774;2023-11-19T12:15:28;0.30;;;0.28;;
74158;SDS011;62511;47.970;11.774;2023-11-19T12:17:55;0.43;;;0.20;;
74158;SDS011;62511;47.970;11.774;2023-11-19T12:20:24;0.20;;;0.10;;
74158;SDS011;62511;47.970;11.774;2023-11-19T12:22:51;0.22;;;0.20;;
74158;SDS011;62511;47.970;11.774;2023-11-19T12:25:18;0.88;;;0.30;;
74158;SDS011;62511;47.970;11.774;2023-11-19T12:27:50;2.60;;;0.63;;
74158;SDS011;62511;47.970;11.774;2023-11-19T12:30:26;0.30;;;0.30;;
74158;SDS011;62511;47.970;11.774;2023-11-19T12:32:54;0.40;;;0.40;;
74158;SDS011;62511;47.970;11.774;2023-11-19T12:35:20;0.85;;;0.60;;
74158;SDS011;62511;47.970;11.774;2023-11-19T12:37:47;2.40;;;0.68;;
74158;SDS011;62511;47.970;11.774;2023-11-19T12:40:14;0.70;;;0.60;;
74158;SDS011;62511;47.970;11.774;2023-11-19T12:45:06;0.17;;;0.17;;
74158;SDS011;62511;47.970;11.774;2023-11-19T12:47:36;0.60;;;0.30;;
74158;SDS011;62511;47.970;11.774;2023-11-19T12:50:03;0.22;;;0.22;;
74158;SDS011;62511;47.970;11.774;2023-11-19T12:52:30;0.10;;;0.10;;
74158;SDS011;62511;47.970;11.774;2023-11-19T12:54:57;1.88;;;0.40;;
74158;SDS011;62511;47.970;11.774;2023-11-19T12:57:39;0.28;;;0.28;;
74158;SDS011;62511;47.970;11.774;2023-11-19T13:00:06;0.35;;;0.30;;
74158;SDS011;62511;47.970;11.774;2023-11-19T13:02:44;1.58;;;0.38;;
74158;SDS011;62511;47.970;11.774;2023-11-19T13:05:28;0.50;;;0.50;;
74158;SDS011;62511;47.970;11.774;2023-11-19T13:08:05;0.63;;;0.30;;
74158;SDS011;62511;47.970;11.774;2023-11-19T13:10:32;1.08;;;0.60;;
74158;SDS011;62511;47.970;11.774;2023-11-19T13:15:27;0.82;;;0.22;;
74158;SDS011;62511;47.970;11.774;2023-11-19T13:17:53;0.90;;;0.52;;
74158;SDS011;62511;47.970;11.774;2023-11-19T13:20:19;3.35;;;0.38;;
74158;SDS011;62511;47.970;11.774;2023-11-19T13:22:58;0.90;;;0.38;;
74158;SDS011;62511;47.970;11.774;2023-11-19T13:25:25;0.90;;;0.30;;
74158;SDS011;62511;47.970;11.774;2023-11-19T13:27:51;0.60;;;0.28;;
74158;SDS011;62511;47.970;11.774;2023-11-19T13:30:18;0.30;;;0.30;;
74158;SDS011;62511;47.970;11.774;2023-11-19T13:32:44;0.32;;;0.20;;
74158;SDS011;62511;47.970;11.774;2023-11-19T13:35:12;0.63;;;0.35;;
74158;SDS011;62511;47.970;11.774;2023-11-19T13:37:39;0.30;;;0.30;;
74158;SDS011;62511;47.970;11.774;2023-11-19T13:40:06;0.30;;;0.20;;
74158;SDS011;62511;47.970;11.774;2023-11-19T13:42:36;0.30;;;0.22;;
74158;SDS011;62511;47.970;11.774;2023-11-19T13:45:06;0.20;;;0.20;;
74158;SDS011;62511;47.970;11.774;2023-11-19T13:47:35;6.78;;;3.17;;
74158;SDS011;62511;47.970;11.774;2023-11-19T13:50:02;2.33;;;1.25;;
74158;SDS011;62511;47.970;11.774;2023-11-19T13:52:31;0.40;;;0.30;;
74158;SDS011;62511;47.970;11.774;2023-11-19T13:54:57;1.00;;;0.63;;
74158;SDS011;62511;47.970;11.774;2023-11-19T13:57:23;0.35;;;0.30;;
74158;SDS011;62511;47.970;11.774;2023-11-19T13:59:49;0.57;;;0.28;;
74158;SDS011;62511;47.970;11.774;2023-11-19T14:02:15;0.28;;;0.25;;
74158;SDS011;62511;47.970;11.774;2023-11-19T14:04:42;2.40;;;0.80;;
74158;SDS011;62511;47.970;11.774;2023-11-19T14:07:08;0.60;;;0.40;;
74158;SDS011;62511;47.970;11.774;2023-11-19T14:09:33;0.70;;;0.70;;
74158;SDS011;62511;47.970;11.774;2023-11-19T14:11:59;0.40;;;0.40;;
74158;SDS011;62511;47.970;11.774;2023-11-19T14:14:25;1.00;;;0.70;;
74158;SDS011;62511;47.970;11.774;2023-11-19T14:16:55;2.15;;;0.85;;
74158;SDS011;62511;47.970;11.774;2023-11-19T14:19:21;1.75;;;1.10;;
74158;SDS011;62511;47.970;11.774;2023-11-19T14:21:47;2.88;;;1.27;;
74158;SDS011;62511;47.970;11.774;2023-11-19T14:24:13;3.40;;;1.35;;
74158;SDS011;62511;47.970;11.774;2023-11-19T14:26:39;0.20;;;0.13;;
74158;SDS011;62511;47.970;11.774;2023-11-19T14:29:05;0.40;;;0.30;;
74158;SDS011;62511;47.970;11.774;2023-11-19T14:31:31;3.08;;;1.40;;
74158;SDS011;62511;47.970;11.774;2023-11-19T14:33:57;0.45;;;0.40;;
74158;SDS011;62511;47.970;11.774;2023-11-19T14:36:26;0.20;;;0.20;;
74158;SDS011;62511;47.970;11.774;2023-11-19T14:38:53;3.08;;;1.33;;
74158;SDS011;62511;47.970;11.774;2023-11-19T14:41:19;1.02;;;0.45;;
74158;SDS011;62511;47.970;11.774;2023-11-19T14:43:45;0.20;;;0.20;;
74158;SDS011;62511;47.970;11.774;2023-11-19T14:46:12;0.57;;;0.40;;
74158;SDS011;62511;47.970;11.774;2023-11-19T14:48:38;0.55;;;0.40;;
74158;SDS011;62511;47.970;11.774;2023-11-19T14:51:04;1.20;;;0.60;;
74158;SDS011;62511;47.970;11.774;2023-11-19T14:53:30;0.65;;;0.55;;
74158;SDS011;62511;47.970;11.774;2023-11-19T14:55:56;2.45;;;1.00;;
74158;SDS011;62511;47.970;11.774;2023-11-19T14:58:22;2.90;;;1.58;;
74158;SDS011;62511;47.970;11.774;2023-11-19T15:00:48;0.68;;;0.40;;
74158;SDS011;62511;47.970;11.774;2023-11-19T15:03:14;0.60;;;0.60;;
74158;SDS011;62511;47.970;11.774;2023-11-19T15:05:41;1.17;;;0.77;;
74158;SDS011;62511;47.970;11.774;2023-11-19T15:08:07;0.70;;;0.52;;
74158;SDS011;62511;47.970;11.774;2023-11-19T15:10:33;2.55;;;1.35;;
74158;SDS011;62511;47.970;11.774;2023-11-19T15:12:59;1.63;;;0.90;;
74158;SDS011;62511;47.970;11.774;2023-11-19T15:15:25;2.17;;;0.80;;
74158;SDS011;62511;47.970;11.774;2023-11-19T15:17:51;1.95;;;1.20;;
74158;SDS011;62511;47.970;11.774;2023-11-19T15:20:17;1.45;;;1.05;;
74158;SDS011;62511;47.970;11.774;2023-11-19T15:22:43;2.15;;;1.20;;
74158;SDS011;62511;47.970;11.774;2023-11-19T15:25:09;2.25;;;2.05;;
74158;SDS011;62511;47.970;11.774;2023-11-19T15:27:35;2.05;;;0.63;;
74158;SDS011;62511;47.970;11.774;2023-11-19T15:30:02;1.35;;;0.93;;
74158;SDS011;62511;47.970;11.774;2023-11-19T15:32:28;3.92;;;1.38;;
74158;SDS011;62511;47.970;11.774;2023-11-19T15:34:57;7.47;;;3.05;;
74158;SDS011;62511;47.970;11.774;2023-11-19T15:37:23;3.03;;;2.03;;
74158;SDS011;62511;47.970;11.774;2023-11-19T15:39:51;2.38;;;1.50;;
74158;SDS011;62511;47.970;11.774;2023-11-19T15:44:43;3.10;;;1.20;;
74158;SDS011;62511;47.970;11.774;2023-11-19T15:49:36;0.90;;;0.60;;
74158;SDS011;62511;47.970;11.774;2023-11-19T15:52:02;1.10;;;0.70;;
74158;SDS011;62511;47.970;11.774;2023-11-19T15:54:30;1.00;;;0.70;;